Time;durP1;ratioP1;P1;durP2;ratioP2;P2;SDS_P1;SDS_P2;PMS_P1;PMS_P2;Temp;Humidity;BMP_temperature;BMP_pressure;BME280_temperature;BME280_humidity;BME280_pressure;Samples;Min_cycle;Max_cycle;Signal;HPM_P1;HPM_P2
2022/05/01 00:01:31;;;;;;;4.47;3.33;;;14.30;59.50;;;;;;4956987;29;20472;-76
2022/05/01 00:03:57;;;;;;;4.63;3.25;;;14.20;59.40;;;;;;4939998;29;20039;-76
2022/05/01 00:06:23;;;;;;;5.10;3.50;;;14.20;60.00;;;;;;4955992;29;20035;-77
2022/05/01 00:08:48;;;;;;;3.58;2.92;;;14.20;59.50;;;;;;4908625;29;20035;-76
2022/05/01 00:11:14;;;;;;;4.43;3.33;;;14.20;59.50;;;;;;4940776;29;20456;-76
2022/05/01 00:13:46;;;;;;;4.43;3.40;;;14.20;59.50;;;;;;4955636;29;20047;-76
2022/05/01 00:16:15;;;;;;;5.03;3.65;;;14.20;59.50;;;;;;4940196;29;20135;-76
2022/05/01 00:18:41;;;;;;;4.30;3.30;;;14.20;59.50;;;;;;4956777;28;20031;-76
2022/05/01 00:21:07;;;;;;;4.68;3.38;;;14.20;59.60;;;;;;4940110;29;20024;-77
2022/05/01 00:23:33;;;;;;;4.95;3.25;;;14.10;60.20;;;;;;4940063;29;20038;-78
2022/05/01 00:26:00;;;;;;;4.57;3.38;;;14.10;59.50;;;;;;4956783;29;20035;-78
2022/05/01 00:28:26;;;;;;;4.75;3.50;;;14.10;59.60;;;;;;4955555;29;20039;-77
2022/05/01 00:30:52;;;;;;;4.85;3.47;;;14.10;59.50;;;;;;4939644;29;20035;-76
2022/05/01 00:38:47;;;;;;;5.20;3.85;;;14.10;59.50;;;;;;4955958;29;20067;-79
2022/05/01 00:41:14;;;;;;;4.80;3.38;;;14.00;59.50;;;;;;4939517;29;20043;-76
2022/05/01 00:44:11;;;;;;;4.68;3.25;;;14.00;59.60;;;;;;4956869;28;20032;-76
2022/05/01 00:46:42;;;;;;;5.10;3.55;;;14.00;59.60;;;;;;4939312;29;20027;-77
2022/05/01 00:49:11;;;;;;;5.03;3.72;;;14.00;59.60;;;;;;4955299;29;20047;-79
2022/05/01 00:52:03;;;;;;;4.03;3.22;;;14.00;59.60;;;;;;4955330;29;20043;-77
2022/05/01 00:54:30;;;;;;;6.07;3.60;;;14.00;59.70;;;;;;4955041;29;20424;-77
2022/05/01 00:57:04;;;;;;;4.43;3.50;;;14.00;59.60;;;;;;4956328;28;20098;-76
2022/05/01 00:59:32;;;;;;;;;;;13.90;59.60;;;;;;4956720;28;20127;-76
2022/05/01 01:01:58;;;;;;;3.60;2.90;;;13.90;59.60;;;;;;4954905;29;20340;-76
2022/05/01 01:04:24;;;;;;;4.60;3.20;;;13.90;59.50;;;;;;4939118;29;20027;-77
2022/05/01 01:06:50;;;;;;;5.07;3.40;;;13.90;60.20;;;;;;4938937;29;20390;-77
2022/05/01 01:09:17;;;;;;;4.30;3.10;;;13.80;59.70;;;;;;4954671;29;20117;-76
2022/05/01 01:11:43;;;;;;;4.72;3.45;;;13.90;59.70;;;;;;4955385;29;20363;-77
2022/05/01 01:14:10;;;;;;;4.80;3.40;;;13.80;59.60;;;;;;4938509;29;20051;-76
2022/05/01 01:16:37;;;;;;;5.13;3.65;;;13.80;59.70;;;;;;4954615;29;20035;-79
2022/05/01 01:19:05;;;;;;;4.65;3.53;;;13.80;59.70;;;;;;4938727;29;20133;-76
2022/05/01 01:21:31;;;;;;;4.10;3.35;;;13.80;59.60;;;;;;4953613;28;20054;-76
2022/05/01 01:23:59;;;;;;;4.40;3.40;;;13.80;59.60;;;;;;4954334;29;20035;-78
2022/05/01 01:26:26;;;;;;;5.03;3.85;;;13.80;59.70;;;;;;4938746;29;20032;-80
2022/05/01 01:28:54;;;;;;;4.50;3.38;;;13.80;59.70;;;;;;4938372;29;20043;-77
2022/05/01 01:31:40;;;;;;;4.78;3.60;;;13.80;59.70;;;;;;4938371;29;20130;-76
2022/05/01 01:34:11;;;;;;;5.15;3.58;;;13.80;59.70;;;;;;4938235;29;20117;-76
2022/05/01 01:36:38;;;;;;;3.47;2.88;;;13.80;59.70;;;;;;4954892;29;20361;-80
2022/05/01 01:39:05;;;;;;;5.05;3.60;;;13.70;59.60;;;;;;4954463;29;20031;-76
2022/05/01 01:41:32;;;;;;;4.85;3.40;;;13.70;59.70;;;;;;4954376;29;20488;-78
2022/05/01 01:43:59;;;;;;;4.30;3.33;;;13.70;59.70;;;;;;4938359;29;20430;-77
2022/05/01 01:46:25;;;;;;;4.90;3.38;;;13.70;59.70;;;;;;4938334;29;20046;-76
2022/05/01 01:48:52;;;;;;;4.85;3.80;;;13.70;59.70;;;;;;4938380;29;20472;-78
2022/05/01 01:51:18;;;;;;;4.63;3.50;;;13.70;59.70;;;;;;4954186;29;20039;-77
2022/05/01 01:53:45;;;;;;;4.60;3.40;;;13.70;59.70;;;;;;4954137;29;20023;-76
2022/05/01 01:56:11;;;;;;;5.00;3.50;;;13.70;59.80;;;;;;4938163;29;20097;-77
2022/05/01 01:58:40;;;;;;;4.88;3.30;;;13.70;59.80;;;;;;4937990;29;20027;-76
2022/05/01 02:01:07;;;;;;;4.95;3.45;;;13.60;59.70;;;;;;4938247;29;20035;-77
2022/05/01 02:03:33;;;;;;;4.68;3.60;;;13.60;59.80;;;;;;4938921;29;20023;-77
2022/05/01 02:06:00;;;;;;;4.88;3.65;;;13.60;59.80;;;;;;4938779;29;20491;-76
2022/05/01 02:08:26;;;;;;;4.53;3.45;;;13.60;59.80;;;;;;4954145;29;20102;-76
2022/05/01 02:10:52;;;;;;;6.38;3.55;;;13.60;59.80;;;;;;4954960;28;20086;-76
2022/05/01 02:13:18;;;;;;;4.75;3.38;;;13.60;60.50;;;;;;4953729;29;20055;-77
2022/05/01 02:15:45;;;;;;;4.82;3.50;;;13.60;59.80;;;;;;4938131;29;20468;-76
2022/05/01 02:18:11;;;;;;;4.95;3.65;;;13.60;59.90;;;;;;4937939;29;20435;-77
2022/05/01 02:23:24;;;;;;;5.27;3.43;;;13.50;59.90;;;;;;4927182;29;20043;-78
2022/05/01 02:25:50;;;;;;;5.88;3.50;;;13.50;59.80;;;;;;4953712;29;20031;-78
2022/05/01 02:28:16;;;;;;;4.40;3.50;;;13.50;59.90;;;;;;4954640;28;20046;-77
2022/05/01 02:30:43;;;;;;;4.38;3.33;;;13.50;60.00;;;;;;4937578;29;20042;-76
2022/05/01 02:33:10;;;;;;;4.45;3.45;;;13.50;60.00;;;;;;4958541;28;20031;-77
2022/05/01 02:35:36;;;;;;;6.03;3.60;;;13.40;60.00;;;;;;4943936;29;20027;-76
2022/05/01 02:38:03;;;;;;;4.45;3.28;;;13.50;60.00;;;;;;4944261;29;20047;-77
2022/05/01 02:40:32;;;;;;;4.93;3.75;;;13.40;60.00;;;;;;4928206;29;20031;-77
2022/05/01 02:42:59;;;;;;;5.03;3.63;;;13.40;60.00;;;;;;4959862;28;20114;-76
2022/05/01 02:45:28;;;;;;;5.72;3.42;;;13.40;60.00;;;;;;4943963;29;20031;-76
2022/05/01 02:47:55;;;;;;;5.13;3.72;;;13.40;60.00;;;;;;4944154;29;20132;-78
2022/05/01 02:50:21;;;;;;;5.57;3.60;;;13.40;60.10;;;;;;4944194;28;20046;-77
2022/05/01 02:52:47;;;;;;;4.70;3.60;;;13.40;60.10;;;;;;4959749;28;20468;-76
2022/05/01 02:55:14;;;;;;;5.35;3.47;;;13.40;60.10;;;;;;4944652;29;20031;-77
2022/05/01 02:57:40;;;;;;;4.30;3.35;;;13.40;60.10;;;;;;4944039;29;20027;-76
2022/05/01 03:00:07;;;;;;;4.95;3.60;;;13.40;60.20;;;;;;4960061;29;20035;-75
2022/05/01 03:02:33;;;;;;;5.38;3.33;;;13.40;60.20;;;;;;4961311;28;20023;-75
2022/05/01 03:04:59;;;;;;;5.45;3.55;;;13.30;60.10;;;;;;4959921;29;20105;-76
2022/05/01 03:07:25;;;;;;;5.53;4.30;;;13.30;60.10;;;;;;4960347;28;20038;-78
2022/05/01 03:09:52;;;;;;;5.25;3.75;;;13.30;60.20;;;;;;4928106;29;20054;-76
2022/05/01 03:12:18;;;;;;;5.07;3.58;;;13.30;60.20;;;;;;4943919;29;20043;-75
2022/05/01 03:14:45;;;;;;;4.90;3.58;;;13.30;60.20;;;;;;4943803;29;20464;-76
2022/05/01 03:17:11;;;;;;;4.45;3.50;;;13.30;60.30;;;;;;4944255;29;20106;-76
2022/05/01 03:22:21;;;;;;;5.47;3.63;;;13.30;60.30;;;;;;4960039;28;20477;-75
2022/05/01 03:24:46;;;;;;;5.30;3.92;;;13.30;60.30;;;;;;4943892;29;20118;-76
2022/05/01 03:27:13;;;;;;;4.90;3.45;;;13.20;60.30;;;;;;4943727;29;20039;-75
2022/05/01 03:29:39;;;;;;;4.90;3.63;;;13.20;60.30;;;;;;4943660;29;20034;-76
2022/05/01 03:32:09;;;;;;;5.82;4.00;;;13.20;60.30;;;;;;4943754;29;20043;-76
2022/05/01 03:34:39;;;;;;;4.97;3.85;;;13.20;60.30;;;;;;4959133;29;20059;-75
2022/05/01 03:37:09;;;;;;;4.75;3.60;;;13.20;60.40;;;;;;4960715;28;20035;-75
2022/05/01 03:39:35;;;;;;;5.72;4.15;;;13.20;60.40;;;;;;4959742;29;20050;-76
2022/05/01 03:42:02;;;;;;;4.82;3.88;;;13.10;60.30;;;;;;4960599;28;20039;-76
2022/05/01 03:44:28;;;;;;;4.85;3.75;;;13.10;60.40;;;;;;4940464;29;20476;-76
2022/05/01 03:46:53;;;;;;;5.30;3.88;;;13.10;60.40;;;;;;4909054;29;20035;-76
2022/05/01 03:49:19;;;;;;;4.93;3.80;;;13.10;60.30;;;;;;4940484;29;20039;-75
2022/05/01 03:51:46;;;;;;;4.80;3.83;;;13.10;60.40;;;;;;4957402;28;20058;-78
2022/05/01 03:54:12;;;;;;;4.90;3.60;;;13.10;60.40;;;;;;4941135;29;20130;-76
2022/05/01 03:56:38;;;;;;;5.47;4.13;;;13.10;60.40;;;;;;4940292;29;20499;-76
2022/05/01 03:59:04;;;;;;;5.45;3.97;;;13.10;60.40;;;;;;4939962;29;20049;-76
2022/05/01 04:01:31;;;;;;;6.25;4.03;;;13.10;60.50;;;;;;4940172;29;20079;-76
2022/05/01 04:03:57;;;;;;;5.80;4.25;;;13.10;60.50;;;;;;4956443;29;20035;-76
2022/05/01 04:06:22;;;;;;;4.90;3.60;;;13.00;60.40;;;;;;4955965;29;20420;-77
2022/05/01 04:08:48;;;;;;;5.18;3.72;;;13.10;60.50;;;;;;4940000;29;20039;-77
2022/05/01 04:11:14;;;;;;;4.85;3.60;;;13.00;60.40;;;;;;4940215;29;20156;-76
2022/05/01 04:13:41;;;;;;;5.13;3.97;;;13.00;60.50;;;;;;4955697;29;20135;-76
2022/05/01 04:16:07;;;;;;;5.53;3.53;;;13.00;60.50;;;;;;4939955;29;20374;-77
2022/05/01 04:18:33;;;;;;;5.40;3.85;;;13.00;60.50;;;;;;4940371;29;20094;-77
2022/05/01 04:20:59;;;;;;;5.85;4.15;;;13.00;60.50;;;;;;4939869;29;20420;-77
2022/05/01 04:23:24;;;;;;;5.72;4.10;;;13.00;60.60;;;;;;4939441;29;20039;-76
2022/05/01 04:25:50;;;;;;;5.45;4.05;;;13.00;60.60;;;;;;4939685;29;20066;-77
2022/05/01 04:28:17;;;;;;;5.95;4.05;;;13.00;60.60;;;;;;4923770;29;20087;-79
2022/05/01 04:30:43;;;;;;;5.25;3.95;;;12.90;60.60;;;;;;4939633;29;20039;-77
2022/05/01 04:33:10;;;;;;;6.60;4.15;;;12.90;60.60;;;;;;4956303;29;20070;-76
2022/05/01 04:35:40;;;;;;;5.10;3.60;;;12.90;60.60;;;;;;4955223;29;20035;-77
2022/05/01 04:38:08;;;;;;;5.07;3.83;;;12.90;60.60;;;;;;4955437;29;20039;-76
2022/05/01 04:40:39;;;;;;;4.43;3.28;;;12.90;60.60;;;;;;4940065;29;20038;-76
2022/05/01 04:43:13;;;;;;;5.13;3.75;;;12.80;60.60;;;;;;4955869;29;20486;-80
2022/05/01 04:45:40;;;;;;;4.90;3.88;;;12.90;60.70;;;;;;4957102;29;20046;-77
2022/05/01 04:48:08;;;;;;;5.13;4.00;;;12.80;60.60;;;;;;4939335;29;20046;-78
2022/05/01 04:50:34;;;;;;;5.20;3.67;;;12.80;60.70;;;;;;4939233;29;20086;-76
2022/05/01 04:53:01;;;;;;;5.00;3.78;;;12.80;60.70;;;;;;4939432;29;20035;-77
2022/05/01 04:55:28;;;;;;;5.57;3.92;;;12.80;60.70;;;;;;4955349;28;20026;-77
2022/05/01 04:57:54;;;;;;;5.30;4.00;;;12.80;60.70;;;;;;4939600;29;20031;-76
2022/05/01 05:00:20;;;;;;;5.75;3.80;;;12.80;60.70;;;;;;4955707;29;20031;-77
2022/05/01 05:02:53;;;;;;;4.72;3.65;;;12.80;60.80;;;;;;4938735;29;20044;-76
2022/05/01 05:05:20;;;;;;;4.90;3.55;;;12.70;60.80;;;;;;4939318;29;20027;-76
2022/05/01 05:07:46;;;;;;;5.05;3.90;;;12.80;60.90;;;;;;4938719;29;20027;-76
2022/05/01 05:10:13;;;;;;;4.55;3.65;;;12.80;60.90;;;;;;4938899;29;20039;-78
2022/05/01 05:12:44;;;;;;;4.55;3.45;;;12.80;60.90;;;;;;4955180;29;20163;-76
2022/05/01 05:15:15;;;;;;;4.85;3.70;;;12.70;60.90;;;;;;4955166;29;20459;-76
2022/05/01 05:17:43;;;;;;;4.97;3.55;;;12.70;60.90;;;;;;4939536;29;20031;-78
2022/05/01 05:20:10;;;;;;;4.60;3.20;;;12.70;60.90;;;;;;4954739;29;20027;-77
2022/05/01 05:22:36;;;;;;;4.97;3.85;;;12.70;60.90;;;;;;4954677;29;20489;-77
2022/05/01 05:25:03;;;;;;;5.18;3.78;;;12.70;60.90;;;;;;4939194;29;20062;-77
2022/05/01 05:27:29;;;;;;;4.78;3.42;;;12.70;60.90;;;;;;4938518;29;20028;-76
2022/05/01 05:29:56;;;;;;;4.53;3.63;;;12.70;60.90;;;;;;4938469;29;20046;-77
2022/05/01 05:32:23;;;;;;;4.53;3.60;;;12.70;60.90;;;;;;4954956;29;20469;-76
2022/05/01 05:34:50;;;;;;;5.13;3.58;;;12.70;61.60;;;;;;4938525;29;20487;-77
2022/05/01 05:37:17;;;;;;;5.35;3.80;;;12.70;61.00;;;;;;4954221;29;20082;-78
2022/05/01 05:39:43;;;;;;;5.20;3.97;;;12.70;61.00;;;;;;4938332;29;20031;-76
2022/05/01 05:42:10;;;;;;;5.15;3.95;;;12.70;61.00;;;;;;4954367;29;20192;-76
2022/05/01 05:44:36;;;;;;;5.53;4.13;;;12.70;61.10;;;;;;4954383;29;20027;-76
2022/05/01 05:47:01;;;;;;;4.57;3.53;;;12.70;61.00;;;;;;4954630;29;20049;-76
2022/05/01 05:49:27;;;;;;;6.32;4.10;;;12.70;61.00;;;;;;4922377;29;20494;-78
2022/05/01 05:51:53;;;;;;;6.15;4.28;;;12.70;61.10;;;;;;4938893;29;20036;-79
2022/05/01 05:54:19;;;;;;;4.78;3.78;;;12.70;61.10;;;;;;4954260;29;20086;-76
2022/05/01 05:56:45;;;;;;;5.28;3.78;;;12.70;61.10;;;;;;4954379;29;20023;-77
2022/05/01 05:59:11;;;;;;;5.28;4.20;;;12.70;61.10;;;;;;4938804;29;20035;-77
2022/05/01 06:01:38;;;;;;;4.68;3.35;;;12.70;61.20;;;;;;4907506;29;20034;-78
2022/05/01 06:04:04;;;;;;;4.70;3.70;;;12.70;61.20;;;;;;4937594;29;20074;-76
2022/05/01 06:06:30;;;;;;;5.50;4.32;;;12.70;61.20;;;;;;4953519;28;20019;-77
2022/05/01 06:08:56;;;;;;;5.03;3.78;;;12.70;61.90;;;;;;4922112;29;20086;-77
2022/05/01 06:11:21;;;;;;;6.07;3.88;;;12.70;61.30;;;;;;4937736;29;20043;-77
2022/05/01 06:13:47;;;;;;;6.00;4.30;;;12.70;61.30;;;;;;4921994;29;20084;-76
2022/05/01 06:16:13;;;;;;;5.00;3.65;;;12.80;61.30;;;;;;4906387;29;20529;-77
2022/05/01 06:18:39;;;;;;;5.93;4.00;;;12.80;61.40;;;;;;4938157;29;20039;-77
2022/05/01 06:21:04;;;;;;;5.60;4.28;;;12.80;61.40;;;;;;4937868;29;20074;-77
2022/05/01 06:23:30;;;;;;;5.05;3.85;;;12.80;61.40;;;;;;4937684;29;20038;-76
2022/05/01 06:25:56;;;;;;;5.50;4.28;;;12.80;61.40;;;;;;4938073;29;20384;-78
2022/05/01 06:28:22;;;;;;;5.88;4.25;;;12.80;61.40;;;;;;4922537;29;20046;-77
2022/05/01 06:30:51;;;;;;;5.00;3.85;;;12.80;61.40;;;;;;4955118;28;20114;-77
2022/05/01 06:33:19;;;;;;;5.82;4.15;;;12.90;61.60;;;;;;4938661;29;20037;-77
2022/05/01 06:35:48;;;;;;;4.93;4.00;;;12.90;61.60;;;;;;4953650;29;20023;-77
2022/05/01 06:38:15;;;;;;;5.18;3.92;;;12.90;61.60;;;;;;4954197;29;20034;-77
2022/05/01 06:40:43;;;;;;;6.30;4.25;;;12.90;61.60;;;;;;4955136;28;20038;-78
2022/05/01 06:43:12;;;;;;;5.00;3.97;;;13.00;61.60;;;;;;4954814;28;20035;-77
2022/05/01 06:45:38;;;;;;;5.22;4.00;;;12.90;61.60;;;;;;4937670;29;20023;-77
2022/05/01 06:48:04;;;;;;;5.15;3.80;;;13.00;61.60;;;;;;4937346;29;20039;-78
2022/05/01 06:50:30;;;;;;;5.35;3.88;;;13.00;61.60;;;;;;4938306;29;20592;-77
2022/05/01 06:52:56;;;;;;;5.65;3.92;;;13.00;61.60;;;;;;4955497;28;20034;-80
2022/05/01 06:55:25;;;;;;;5.45;4.15;;;13.10;61.60;;;;;;4921832;29;20038;-77
2022/05/01 06:57:52;;;;;;;5.40;4.00;;;13.10;61.60;;;;;;4938259;29;20031;-76
2022/05/01 07:00:18;;;;;;;5.90;4.72;;;13.10;61.60;;;;;;4953413;29;20128;-79
2022/05/01 07:02:49;;;;;;;5.45;4.18;;;13.10;61.50;;;;;;4921882;29;20470;-78
2022/05/01 07:05:15;;;;;;;5.07;3.85;;;13.20;61.60;;;;;;4937557;29;20498;-78
2022/05/01 07:07:40;;;;;;;6.22;4.53;;;13.20;61.60;;;;;;4937538;29;20123;-77
2022/05/01 07:10:07;;;;;;;5.50;4.18;;;13.20;61.60;;;;;;4938037;29;20130;-76
2022/05/01 07:12:33;;;;;;;5.60;4.40;;;13.20;62.30;;;;;;4953960;29;20490;-78
2022/05/01 07:14:59;;;;;;;5.63;4.00;;;13.30;61.60;;;;;;4953943;29;20039;-78
2022/05/01 07:17:25;;;;;;;5.40;4.10;;;13.30;61.70;;;;;;4937596;29;20039;-77
2022/05/01 07:19:51;;;;;;;5.50;4.03;;;13.30;61.60;;;;;;4955207;28;20098;-78
2022/05/01 07:22:17;;;;;;;5.10;3.78;;;13.40;61.70;;;;;;4957490;29;20035;-76
2022/05/01 07:24:43;;;;;;;6.03;4.05;;;13.40;61.70;;;;;;4957761;29;20118;-78
2022/05/01 07:27:09;;;;;;;5.75;4.25;;;13.40;61.70;;;;;;4956804;29;20032;-76
2022/05/01 07:29:35;;;;;;;5.78;4.40;;;13.40;61.70;;;;;;4941149;29;20057;-78
2022/05/01 07:32:01;;;;;;;5.68;4.38;;;13.50;61.70;;;;;;4940694;29;20066;-77
2022/05/01 07:34:27;;;;;;;5.47;4.22;;;13.50;61.70;;;;;;4940930;29;20031;-78
2022/05/01 07:36:53;;;;;;;5.75;4.55;;;13.60;61.70;;;;;;4940830;29;20031;-78
2022/05/01 07:39:19;;;;;;;5.55;4.40;;;13.60;61.70;;;;;;4941213;29;20039;-78
2022/05/01 07:41:44;;;;;;;6.13;4.60;;;13.60;61.70;;;;;;4941121;29;20046;-77
2022/05/01 07:44:11;;;;;;;5.57;4.15;;;13.60;61.60;;;;;;4908880;29;20031;-77
2022/05/01 07:46:45;;;;;;;5.13;4.07;;;13.70;61.70;;;;;;4940830;29;20038;-76
2022/05/01 07:49:11;;;;;;;6.28;4.70;;;13.70;61.70;;;;;;4954445;29;20039;-76
2022/05/01 07:51:37;;;;;;;6.28;4.88;;;13.70;61.60;;;;;;4940641;29;20062;-76
2022/05/01 07:54:04;;;;;;;6.20;4.40;;;13.80;61.70;;;;;;4956143;29;20062;-76
2022/05/01 07:56:31;;;;;;;5.57;4.10;;;13.80;61.70;;;;;;4940583;29;20028;-78
2022/05/01 07:58:57;;;;;;;5.50;4.20;;;13.90;61.70;;;;;;4957945;28;20028;-81
2022/05/01 08:01:23;;;;;;;5.15;3.97;;;13.90;61.60;;;;;;4940944;29;20486;-80
2022/05/01 08:06:35;;;;;;;4.88;4.03;;;14.00;61.70;;;;;;4958306;29;20054;-78
2022/05/01 08:09:02;;;;;;;5.30;4.10;;;14.00;61.60;;;;;;4940849;29;20038;-80
2022/05/01 08:11:27;;;;;;;5.65;4.28;;;14.10;61.60;;;;;;4940554;29;20134;-79
2022/05/01 08:13:53;;;;;;;5.53;3.72;;;14.10;61.60;;;;;;4956318;29;20503;-79
2022/05/01 08:16:21;;;;;;;5.65;4.28;;;14.10;61.50;;;;;;4924954;29;20547;-78
2022/05/01 08:21:33;;;;;;;5.05;3.70;;;14.20;61.60;;;;;;4956438;29;20655;-80
2022/05/01 08:23:59;;;;;;;5.45;4.22;;;14.30;61.50;;;;;;4940460;29;20457;-80
2022/05/01 08:26:25;;;;;;;5.97;4.50;;;14.30;61.50;;;;;;4939890;29;20031;-79
2022/05/01 08:28:55;;;;;;;5.88;4.40;;;14.30;61.40;;;;;;4939980;29;20480;-78
2022/05/01 08:31:21;;;;;;;5.70;4.25;;;14.40;61.50;;;;;;4939782;29;20039;-78
2022/05/01 08:33:47;;;;;;;5.28;3.80;;;14.50;61.50;;;;;;4956216;29;20118;-79
2022/05/01 08:36:13;;;;;;;5.63;4.20;;;14.50;61.40;;;;;;4939540;29;20031;-76
2022/05/01 08:38:39;;;;;;;5.65;4.22;;;14.50;61.40;;;;;;4956893;28;20047;-77
2022/05/01 08:41:07;;;;;;;6.18;4.28;;;14.60;61.30;;;;;;4940594;29;20035;-77
2022/05/01 08:43:34;;;;;;;6.10;4.13;;;14.60;61.30;;;;;;4956551;28;20023;-78
2022/05/01 08:46:18;;;;;;;5.55;4.20;;;14.70;61.30;;;;;;4939648;29;20031;-77
2022/05/01 08:49:01;;;;;;;4.68;3.53;;;14.80;61.30;;;;;;4940340;29;20039;-75
2022/05/01 08:51:32;;;;;;;5.18;3.85;;;14.80;61.30;;;;;;4940137;29;20036;-75
2022/05/01 08:53:58;;;;;;;5.65;4.20;;;14.90;61.20;;;;;;4956046;29;20350;-77
2022/05/01 08:56:25;;;;;;;5.38;4.22;;;14.90;61.20;;;;;;4924145;29;20043;-78
2022/05/01 08:58:51;;;;;;;6.32;4.47;;;15.00;61.20;;;;;;4940121;29;20032;-76
2022/05/01 09:01:18;;;;;;;5.20;4.15;;;15.00;61.20;;;;;;4955424;29;20086;-78
2022/05/01 09:03:44;;;;;;;5.68;3.97;;;15.10;61.10;;;;;;4939060;29;20105;-77
2022/05/01 09:06:11;;;;;;;5.30;4.13;;;15.10;61.10;;;;;;4939197;29;20053;-76
2022/05/01 09:08:39;;;;;;;5.00;4.07;;;15.20;61.10;;;;;;4955865;28;20073;-76
2022/05/01 09:13:49;;;;;;;4.85;3.75;;;15.40;61.00;;;;;;4941361;29;20051;-75
2022/05/01 09:16:14;;;;;;;5.43;4.03;;;15.50;60.90;;;;;;4954794;29;20043;-78
2022/05/01 09:18:47;;;;;;;5.40;4.03;;;15.50;60.90;;;;;;4954584;29;20031;-75
2022/05/01 09:21:13;;;;;;;5.50;4.18;;;15.60;60.80;;;;;;4954882;29;20478;-76
2022/05/01 09:23:41;;;;;;;5.20;4.15;;;15.70;60.70;;;;;;4938845;29;20031;-77
2022/05/01 09:26:09;;;;;;;5.55;3.95;;;15.70;60.60;;;;;;4955651;28;20605;-76
2022/05/01 09:28:36;;;;;;;5.05;4.05;;;15.80;60.60;;;;;;4954777;29;20044;-76
2022/05/01 09:31:02;;;;;;;5.80;4.05;;;15.90;60.50;;;;;;4956132;28;20135;-77
2022/05/01 09:33:29;;;;;;;6.45;4.40;;;16.00;60.40;;;;;;4954325;29;20023;-77
2022/05/01 09:35:55;;;;;;;5.15;4.03;;;16.10;60.40;;;;;;4954719;29;20448;-77
2022/05/01 09:38:28;;;;;;;5.30;4.18;;;16.10;60.30;;;;;;4954768;29;20376;-77
2022/05/01 09:40:55;;;;;;;5.38;4.10;;;16.30;60.20;;;;;;4954358;28;20038;-75
2022/05/01 09:43:41;;;;;;;5.40;4.22;;;16.30;60.20;;;;;;4954806;28;20155;-75
2022/05/01 09:46:22;;;;;;;4.68;3.70;;;16.40;60.10;;;;;;4954452;29;20166;-76
2022/05/01 09:49:00;;;;;;;5.22;3.88;;;16.50;60.00;;;;;;4938248;29;20051;-75
2022/05/01 09:51:28;;;;;;;4.75;3.42;;;16.60;60.00;;;;;;4955649;29;20035;-75
2022/05/01 09:53:54;;;;;;;6.68;4.55;;;16.60;59.80;;;;;;4955038;29;20034;-75
2022/05/01 09:56:21;;;;;;;5.63;4.20;;;16.70;59.80;;;;;;4954427;29;20139;-76
2022/05/01 09:58:56;;;;;;;5.20;4.07;;;16.80;59.70;;;;;;4954416;29;20035;-77
2022/05/01 10:01:22;;;;;;;5.60;4.32;;;16.80;59.60;;;;;;4955901;28;20392;-77
2022/05/01 10:03:52;;;;;;;5.28;4.00;;;16.90;59.60;;;;;;4954154;29;20094;-75
2022/05/01 10:06:19;;;;;;;5.60;4.10;;;16.90;59.50;;;;;;4939274;29;20039;-74
2022/05/01 10:08:46;;;;;;;4.68;3.75;;;17.00;59.40;;;;;;4937732;29;20039;-77
2022/05/01 10:11:17;;;;;;;5.63;3.90;;;17.10;59.30;;;;;;4938309;29;20439;-75
2022/05/01 10:13:46;;;;;;;5.50;4.18;;;17.10;59.20;;;;;;4954053;29;20086;-75
2022/05/01 10:16:15;;;;;;;5.60;4.00;;;17.10;59.10;;;;;;4953930;29;20046;-76
2022/05/01 10:18:43;;;;;;;5.18;3.95;;;17.20;59.10;;;;;;4938388;29;20033;-78
2022/05/01 10:21:09;;;;;;;5.60;3.97;;;17.20;59.10;;;;;;4938121;29;20380;-78
2022/05/01 10:23:35;;;;;;;4.95;3.88;;;17.20;59.00;;;;;;4954088;29;20042;-80
2022/05/01 10:26:26;;;;;;;5.68;3.90;;;17.30;59.00;;;;;;4937785;29;20035;-76
2022/05/01 10:29:24;;;;;;;5.18;3.50;;;17.30;59.10;;;;;;4938539;29;20345;-77
2022/05/01 10:32:22;;;;;;;5.45;3.38;;;17.30;59.10;;;;;;4954037;29;20180;-76
2022/05/01 10:35:01;;;;;;;4.75;3.42;;;17.40;59.10;;;;;;4938129;29;20118;-76
2022/05/01 10:38:05;;;;;;;5.22;3.45;;;17.40;59.10;;;;;;4954548;29;20383;-76
2022/05/01 10:40:33;;;;;;;5.30;3.75;;;17.40;59.10;;;;;;4938106;29;20071;-75
2022/05/01 10:43:24;;;;;;;6.15;3.50;;;17.40;59.00;;;;;;4937679;29;20162;-77
2022/05/01 10:45:50;;;;;;;5.05;3.53;;;17.50;59.10;;;;;;4937760;29;20054;-76
2022/05/01 10:48:28;;;;;;;4.57;3.55;;;17.50;59.00;;;;;;4953437;29;20039;-75
2022/05/01 10:50:54;;;;;;;4.72;3.20;;;17.50;59.00;;;;;;4955228;28;20118;-76
2022/05/01 10:53:20;;;;;;;5.18;3.80;;;17.60;59.00;;;;;;4923666;29;20376;-75
2022/05/01 10:55:49;;;;;;;4.68;3.55;;;17.60;59.00;;;;;;4957493;29;20037;-75
2022/05/01 10:58:26;;;;;;;5.10;3.83;;;17.60;59.00;;;;;;4957302;29;20038;-75
2022/05/01 11:00:56;;;;;;;4.97;3.70;;;17.60;58.90;;;;;;4957747;29;20040;-76
2022/05/01 11:03:35;;;;;;;5.30;3.88;;;17.60;58.90;;;;;;4941575;29;20472;-77
2022/05/01 11:06:04;;;;;;;4.63;3.53;;;17.70;58.90;;;;;;4957115;29;20043;-76
2022/05/01 11:08:40;;;;;;;4.85;3.53;;;17.70;58.90;;;;;;4956883;29;20111;-76
2022/05/01 11:11:11;;;;;;;4.90;3.42;;;17.70;58.80;;;;;;4957014;29;20031;-76
2022/05/01 11:13:39;;;;;;;5.10;3.50;;;17.80;58.80;;;;;;4941429;29;20523;-76
2022/05/01 11:16:10;;;;;;;4.05;3.28;;;17.80;58.70;;;;;;4941098;29;20122;-77
2022/05/01 11:18:53;;;;;;;5.57;4.00;;;17.80;58.80;;;;;;4957140;29;20035;-76
2022/05/01 11:21:21;;;;;;;5.25;3.55;;;17.90;58.80;;;;;;4958530;28;20119;-77
2022/05/01 11:24:04;;;;;;;5.70;4.05;;;17.90;58.70;;;;;;4956917;29;20056;-77
2022/05/01 11:26:32;;;;;;;4.80;3.85;;;17.90;58.60;;;;;;4940705;29;20095;-77
2022/05/01 11:29:13;;;;;;;5.10;3.45;;;18.00;58.60;;;;;;4941082;29;20042;-76
2022/05/01 11:31:49;;;;;;;4.57;3.70;;;18.00;59.10;;;;;;4956633;29;20035;-76
2022/05/01 11:34:22;;;;;;;4.38;3.38;;;18.00;58.40;;;;;;4941100;29;20054;-81
2022/05/01 11:37:23;;;;;;;5.07;3.67;;;18.10;58.50;;;;;;4957351;29;20086;-77
2022/05/01 11:39:49;;;;;;;4.45;3.50;;;18.10;58.50;;;;;;4867312;29;20048;-77
2022/05/01 11:42:29;;;;;;;4.60;3.50;;;18.10;58.40;;;;;;4940663;29;20431;-77
2022/05/01 11:44:56;;;;;;;5.15;3.53;;;18.10;58.30;;;;;;4940827;29;20059;-75
2022/05/01 11:47:24;;;;;;;4.35;3.55;;;18.20;58.30;;;;;;4940147;29;20065;-76
2022/05/01 11:49:50;;;;;;;4.80;3.78;;;18.20;58.30;;;;;;4956800;29;20046;-75
2022/05/01 11:52:17;;;;;;;5.20;3.75;;;18.20;58.30;;;;;;4957477;28;20059;-81
2022/05/01 11:54:54;;;;;;;4.97;3.42;;;18.30;58.20;;;;;;4941091;29;20035;-79
2022/05/01 12:03:01;;;;;;;4.63;3.45;;;18.40;58.00;;;;;;4955786;29;20043;-76
2022/05/01 12:05:44;;;;;;;4.50;3.42;;;18.50;58.00;;;;;;4955178;28;20027;-78
2022/05/01 12:08:11;;;;;;;4.63;3.47;;;18.50;57.90;;;;;;4955756;29;20039;-75
2022/05/01 12:10:41;;;;;;;4.60;3.40;;;18.50;57.80;;;;;;4956695;29;20050;-76
2022/05/01 12:13:30;;;;;;;5.13;3.80;;;18.60;57.80;;;;;;4940136;29;20035;-77
2022/05/01 12:15:56;;;;;;;4.63;3.40;;;18.60;57.80;;;;;;4956533;29;20053;-76
2022/05/01 12:18:23;;;;;;;4.88;3.20;;;18.70;57.80;;;;;;4940113;29;20431;-78
2022/05/01 12:20:49;;;;;;;3.88;2.95;;;18.70;57.70;;;;;;4957147;28;20373;-75
2022/05/01 12:23:18;;;;;;;4.30;3.30;;;18.80;57.70;;;;;;4956019;29;20513;-75
2022/05/01 12:25:46;;;;;;;4.03;3.20;;;18.80;57.60;;;;;;4939664;29;20031;-74
2022/05/01 12:28:15;;;;;;;4.18;3.25;;;18.90;57.60;;;;;;4956579;28;20113;-76
2022/05/01 12:30:42;;;;;;;4.85;3.47;;;18.90;57.50;;;;;;4955563;29;20055;-74
2022/05/01 12:33:18;;;;;;;4.68;3.42;;;19.00;57.50;;;;;;4939377;29;20046;-74
2022/05/01 12:35:52;;;;;;;4.93;3.85;;;19.00;57.40;;;;;;4957116;28;20110;-74
2022/05/01 12:38:19;;;;;;;4.55;3.22;;;19.10;57.40;;;;;;4955945;29;20122;-75
2022/05/01 12:46:28;;;;;;;4.95;3.53;;;19.20;57.20;;;;;;4942196;29;20068;-74
2022/05/01 12:48:54;;;;;;;4.93;3.47;;;19.30;57.20;;;;;;4955371;29;20042;-75
2022/05/01 12:51:20;;;;;;;4.95;3.83;;;19.30;57.10;;;;;;4923056;29;20122;-75
2022/05/01 12:53:46;;;;;;;4.63;3.40;;;19.30;57.10;;;;;;4939086;29;20119;-75
2022/05/01 12:56:34;;;;;;;5.00;3.58;;;19.40;57.00;;;;;;4939189;29;20031;-75
2022/05/01 12:59:00;;;;;;;4.40;3.25;;;19.40;57.60;;;;;;4939127;29;20039;-74
2022/05/01 13:01:27;;;;;;;4.78;3.22;;;19.40;56.90;;;;;;4955187;29;20468;-75
2022/05/01 13:03:56;;;;;;;5.38;3.65;;;19.50;56.90;;;;;;4955013;29;20042;-75
2022/05/01 13:06:23;;;;;;;5.50;4.20;;;19.50;56.70;;;;;;4938371;29;20086;-75
2022/05/01 13:08:51;;;;;;;4.50;3.13;;;19.60;56.80;;;;;;4956042;28;20047;-76
2022/05/01 13:11:23;;;;;;;5.40;3.40;;;19.60;56.70;;;;;;4938833;29;20543;-76
2022/05/01 13:13:54;;;;;;;4.32;2.97;;;19.60;56.60;;;;;;4954510;29;20388;-74
2022/05/01 13:16:32;;;;;;;4.47;3.35;;;19.70;56.60;;;;;;4938995;29;20046;-76
2022/05/01 13:19:11;;;;;;;4.93;3.50;;;19.70;56.60;;;;;;4955483;29;20460;-74
2022/05/01 13:21:40;;;;;;;4.50;3.38;;;19.80;56.50;;;;;;4940825;29;20124;-75
2022/05/01 13:24:13;;;;;;;4.25;3.03;;;19.80;56.50;;;;;;4954472;29;20480;-75
2022/05/01 13:26:40;;;;;;;4.20;3.35;;;19.80;56.50;;;;;;4954927;29;20034;-77